Time;durP1;ratioP1;P1;durP2;ratioP2;P2;SDS_P1;SDS_P2;PMS_P1;PMS_P2;Temp;Humidity;BMP_temperature;BMP_pressure;BME280_temperature;BME280_humidity;BME280_pressure;Samples;Min_cycle;Max_cycle;Signal;HPM_P1;HPM_P2
2023/09/11 00:02:12;;;;;;;11.80;6.93;;;;;;;21.83;55.16;100538.84;5429233;32;33117;-73
2023/09/11 00:05:15;;;;;;;10.48;6.60;;;;;;;21.63;55.96;100545.84;5447160;32;33932;-72
2023/09/11 00:08:17;;;;;;;14.27;7.05;;;;;;;21.58;55.01;100540.91;5439945;32;33448;-73
2023/09/11 00:11:20;;;;;;;12.65;7.22;;;;;;;21.38;55.49;100533.66;5433618;32;33694;-73
2023/09/11 00:14:22;;;;;;;10.80;6.35;;;;;;;21.51;55.41;100536.16;5444550;32;33389;-74
2023/09/11 00:17:24;;;;;;;10.68;6.43;;;;;;;21.65;54.17;100532.37;5430792;32;33824;-69
2023/09/11 00:20:27;;;;;;;15.05;7.03;;;;;;;21.87;53.85;100538.47;5447921;32;33634;-72
2023/09/11 00:23:30;;;;;;;12.23;6.37;;;;;;;22.20;53.12;100533.09;5442371;32;34075;-71
2023/09/11 00:26:33;;;;;;;11.00;6.18;;;;;;;22.17;52.95;100534.22;5433914;32;33694;-71
2023/09/11 00:29:35;;;;;;;10.48;6.22;;;;;;;22.61;51.34;100538.41;5431390;32;33720;-72
2023/09/11 00:32:38;;;;;;;11.63;6.12;;;;;;;22.57;51.49;100528.94;5446144;32;33871;-67
2023/09/11 00:35:45;;;;;;;15.77;6.72;;;;;;;22.53;51.67;100527.50;5444687;32;34514;-68
2023/09/11 00:38:49;;;;;;;12.45;6.53;;;;;;;22.36;52.03;100523.62;5441957;32;33963;-68
2023/09/11 00:41:52;;;;;;;13.82;6.80;;;;;;;22.21;52.69;100524.06;5433832;32;34814;-67
2023/09/11 00:44:54;;;;;;;;;;;;;;;22.17;53.07;100521.69;5418755;32;34021;-68
2023/09/11 00:47:56;;;;;;;11.93;6.68;;;;;;;22.12;53.56;100515.00;5446036;32;33139;-68
2023/09/11 00:50:59;;;;;;;;;;;;;;;21.81;54.42;100516.72;5432429;32;33644;-68
2023/09/11 00:54:01;;;;;;;12.93;6.47;;;;;;;21.35;55.75;100510.69;5436830;32;32986;-67
2023/09/11 00:57:05;;;;;;;13.13;7.45;;;;;;;21.21;56.67;100518.13;5433618;32;34388;-68
2023/09/11 01:00:09;;;;;;;12.90;7.25;;;;;;;21.25;56.32;100514.22;5426535;32;33837;-73
2023/09/11 01:03:12;;;;;;;12.50;6.82;;;;;;;21.44;56.12;100513.59;5428522;32;33199;-73
2023/09/11 01:06:15;;;;;;;11.32;6.90;;;;;;;21.44;56.02;100508.22;5427317;32;33994;-67
2023/09/11 01:09:17;;;;;;;14.15;6.50;;;;;;;21.35;56.19;100517.88;5447708;32;33983;-67
2023/09/11 01:12:20;;;;;;;14.38;6.70;;;;;;;20.86;57.48;100519.13;5444310;32;33968;-67
2023/09/11 01:15:25;;;;;;;13.88;7.05;;;;;;;20.25;60.04;100513.25;5447253;32;33519;-67
2023/09/11 01:18:40;;;;;;;11.43;6.75;;;;;;;20.52;59.69;100527.16;5438460;32;33490;-67
2023/09/11 01:22:08;;;;;;;12.45;6.93;;;;;;;20.95;58.18;100513.06;5441046;32;33454;-67
2023/09/11 01:25:48;;;;;;;11.05;6.65;;;;;;;21.31;56.91;100513.75;5437357;32;33743;-69
2023/09/11 01:29:26;;;;;;;10.70;6.87;;;;;;;20.62;60.38;100513.09;5433106;32;34042;-68
2023/09/11 01:32:29;;;;;;;12.05;6.90;;;;;;;20.30;61.85;100516.44;5443245;32;33800;-68
2023/09/11 01:35:31;;;;;;;12.40;6.87;;;;;;;20.53;61.09;100511.97;5437435;32;33791;-73
2023/09/11 01:38:34;;;;;;;10.55;7.15;;;;;;;20.68;60.06;100510.78;5444373;32;33875;-68
2023/09/11 01:41:40;;;;;;;11.73;6.47;;;;;;;20.33;61.19;100518.00;5420697;32;33044;-68
2023/09/11 01:44:44;;;;;;;13.18;6.75;;;;;;;20.66;60.38;100509.19;5433313;32;33887;-68
2023/09/11 01:47:48;;;;;;;10.45;6.70;;;;;;;21.11;58.77;100507.31;5432161;32;32848;-72
2023/09/11 01:50:50;;;;;;;12.32;6.78;;;;;;;21.16;58.16;100510.47;5438248;32;33315;-72
2023/09/11 01:53:53;;;;;;;10.60;6.90;;;;;;;20.97;59.34;100515.59;5445324;32;33207;-73
2023/09/11 01:56:56;;;;;;;12.55;7.10;;;;;;;21.05;58.72;100506.00;5426285;32;33255;-68
2023/09/11 01:59:58;;;;;;;10.05;6.70;;;;;;;21.12;58.52;100513.50;5445644;32;33721;-73
2023/09/11 02:03:01;;;;;;;13.62;7.30;;;;;;;20.99;59.18;100505.63;5445343;32;34276;-68
2023/09/11 02:06:04;;;;;;;11.88;7.12;;;;;;;20.78;60.04;100517.06;5432900;32;34081;-68
2023/09/11 02:09:06;;;;;;;10.35;6.75;;;;;;;21.05;59.10;100515.81;5442502;32;33141;-72
2023/09/11 02:12:09;;;;;;;12.82;6.95;;;;;;;21.59;57.37;100513.19;5448062;32;33672;-73
2023/09/11 02:15:11;;;;;;;10.73;6.50;;;;;;;21.37;57.57;100513.25;5434622;32;33232;-67
2023/09/11 02:18:14;;;;;;;12.98;7.05;;;;;;;21.44;57.52;100503.72;5447968;32;33878;-73
2023/09/11 02:21:16;;;;;;;12.27;7.45;;;;;;;21.50;57.40;100505.06;5443552;32;33807;-67
2023/09/11 02:24:19;;;;;;;11.57;7.35;;;;;;;20.95;59.50;100513.06;5428360;32;32307;-68
2023/09/11 02:27:21;;;;;;;10.23;6.78;;;;;;;20.12;62.54;100509.84;5446686;32;33191;-68
2023/09/11 02:30:24;;;;;;;12.77;7.22;;;;;;;20.06;63.67;100507.63;5430902;32;33261;-68
2023/09/11 02:33:26;;;;;;;12.37;6.78;;;;;;;20.49;61.55;100511.37;5448756;32;33707;-68
2023/09/11 02:36:29;;;;;;;11.75;7.32;;;;;;;20.27;62.42;100511.31;5443204;32;33819;-73
2023/09/11 02:39:31;;;;;;;11.02;6.90;;;;;;;20.99;59.61;100506.47;5449356;32;34073;-69
2023/09/11 02:42:33;;;;;;;11.12;6.82;;;;;;;21.02;59.64;100508.91;5432611;32;34261;-68
2023/09/11 02:45:36;;;;;;;13.48;7.05;;;;;;;20.32;61.72;100511.81;5435051;32;33152;-68
2023/09/11 02:48:47;;;;;;;11.23;7.15;;;;;;;20.18;62.32;100510.22;5437977;32;33835;-68
2023/09/11 02:51:50;;;;;;;12.32;7.07;;;;;;;20.07;62.90;100498.66;5419881;32;33290;-67
2023/09/11 02:54:52;;;;;;;16.77;7.43;;;;;;;19.89;63.20;100508.91;5436111;32;34537;-74
2023/09/11 02:57:55;;;;;;;13.82;7.10;;;;;;;20.64;60.19;100498.63;5432110;32;34439;-72
2023/09/11 03:01:04;;;;;;;12.88;6.90;;;;;;;20.95;58.08;100497.03;5448162;32;33275;-67
2023/09/11 03:04:07;;;;;;;10.60;6.62;;;;;;;21.23;57.36;100492.09;5420213;32;33189;-73
2023/09/11 03:07:09;;;;;;;12.18;6.87;;;;;;;21.35;57.13;100497.34;5414277;32;33820;-67
2023/09/11 03:10:11;;;;;;;13.00;7.00;;;;;;;21.22;57.35;100493.09;5448710;32;34709;-67
2023/09/11 03:13:14;;;;;;;13.98;7.20;;;;;;;20.79;58.67;100499.22;5444370;32;33201;-68
2023/09/11 03:16:17;;;;;;;13.80;7.32;;;;;;;20.41;59.71;100492.38;5436095;32;33401;-68
2023/09/11 03:19:19;;;;;;;11.48;6.60;;;;;;;20.49;59.69;100498.03;5444664;32;33877;-68
2023/09/11 03:22:22;;;;;;;13.30;7.43;;;;;;;20.10;61.42;100499.28;5433930;32;33872;-73
2023/09/11 03:25:26;;;;;;;13.02;7.30;;;;;;;20.41;60.97;100497.72;5447507;32;33738;-73
2023/09/11 03:28:30;;;;;;;14.77;7.40;;;;;;;20.80;59.66;100493.78;5443700;32;34552;-68
2023/09/11 03:31:33;;;;;;;13.60;7.32;;;;;;;20.76;59.83;100491.47;5448152;32;33502;-74
2023/09/11 03:34:35;;;;;;;13.85;7.93;;;;;;;20.43;61.03;100500.31;5445026;32;33895;-67
2023/09/11 03:37:38;;;;;;;15.38;8.20;;;;;;;19.56;64.36;100490.94;5444771;32;34695;-74
2023/09/11 03:40:43;;;;;;;13.30;7.53;;;;;;;19.87;63.66;100498.37;5433920;32;33725;-73
2023/09/11 03:43:46;;;;;;;12.70;7.37;;;;;;;20.05;63.47;100505.94;5437279;32;34376;-72
2023/09/11 03:46:48;;;;;;;11.80;7.43;;;;;;;20.88;60.13;100497.66;5428731;32;33899;-73
2023/09/11 03:49:51;;;;;;;16.95;8.00;;;;;;;20.87;59.75;100498.63;5445378;32;33253;-72
2023/09/11 03:52:54;;;;;;;15.27;8.15;;;;;;;20.68;60.38;100496.59;5447470;32;33818;-67
2023/09/11 03:55:57;;;;;;;14.25;7.72;;;;;;;20.74;60.38;100493.44;5432984;32;33209;-67
2023/09/11 03:58:59;;;;;;;13.30;8.50;;;;;;;19.82;63.78;100491.69;5449038;32;33689;-73
2023/09/11 04:02:02;;;;;;;13.77;8.50;;;;;;;19.56;65.53;100497.13;5430568;32;34809;-68
2023/09/11 04:05:05;;;;;;;11.18;7.45;;;;;;;19.95;64.36;100493.28;5433022;32;34495;-68
2023/09/11 04:08:08;;;;;;;14.57;8.52;;;;;;;20.79;61.09;100493.88;5445328;32;33218;-73
2023/09/11 04:11:10;;;;;;;;;;;;;;;20.75;60.52;100490.63;5431731;32;34169;-68
2023/09/11 04:14:13;;;;;;;14.32;7.60;;;;;;;20.36;60.92;100494.59;5435821;32;33687;-74
2023/09/11 04:17:15;;;;;;;17.30;7.78;;;;;;;19.69;64.28;100489.09;5443988;32;34085;-68
2023/09/11 04:20:17;;;;;;;15.70;8.18;;;;;;;19.95;63.17;100487.94;5448945;32;33624;-73
2023/09/11 04:23:20;;;;;;;13.95;8.45;;;;;;;19.96;62.86;100491.47;5443029;32;33383;-69
2023/09/11 04:26:22;;;;;;;21.95;9.95;;;;;;;20.21;61.79;100477.94;5428072;32;33662;-67
2023/09/11 04:29:25;;;;;;;15.35;9.07;;;;;;;20.50;60.68;100477.53;5422230;32;34413;-68
2023/09/11 04:32:27;;;;;;;15.05;8.63;;;;;;;20.19;61.10;100492.38;5441455;32;34155;-73
2023/09/11 04:35:30;;;;;;;13.90;7.70;;;;;;;19.56;64.04;100485.63;5448215;32;33956;-74
2023/09/11 04:38:32;;;;;;;13.25;8.02;;;;;;;20.24;61.71;100479.53;5442020;32;33305;-73
2023/09/11 04:41:39;;;;;;;14.85;8.27;;;;;;;19.94;63.60;100480.94;5435862;32;34349;-67
2023/09/11 04:44:42;;;;;;;13.52;8.02;;;;;;;20.76;60.66;100480.78;5443565;32;33272;-68
2023/09/11 04:47:45;;;;;;;15.70;8.95;;;;;;;21.11;59.61;100475.25;5440707;32;34153;-68
2023/09/11 04:50:47;;;;;;;17.77;8.68;;;;;;;21.03;59.91;100472.38;5447104;32;34029;-73
2023/09/11 04:53:50;;;;;;;17.85;8.93;;;;;;;19.15;66.82;100476.22;5442621;32;34055;-73
2023/09/11 04:56:53;;;;;;;20.37;9.68;;;;;;;19.43;66.50;100483.88;5431460;32;33651;-69
2023/09/11 04:59:55;;;;;;;16.20;8.63;;;;;;;19.82;64.97;100478.34;5442902;32;33465;-73
2023/09/11 05:02:57;;;;;;;13.50;8.70;;;;;;;19.94;63.85;100480.94;5444544;32;34693;-68
2023/09/11 05:06:00;;;;;;;23.27;12.25;;;;;;;19.39;65.31;100469.09;5440662;32;33688;-68
2023/09/11 05:09:02;;;;;;;15.85;9.73;;;;;;;19.65;64.45;100480.50;5440305;32;34146;-68
2023/09/11 05:12:13;;;;;;;17.65;8.90;;;;;;;20.28;62.67;100480.97;5445555;32;33847;-74
2023/09/11 05:15:15;;;;;;;28.45;9.48;;;;;;;21.80;57.21;100462.38;5429223;32;33571;-68
2023/09/11 05:18:17;;;;;;;17.73;9.50;;;;;;;22.51;54.50;100475.06;5434860;32;34331;-73
2023/09/11 05:21:20;;;;;;;13.32;7.40;;;;;;;21.90;55.58;100474.00;5427977;32;33396;-73
2023/09/11 05:24:22;;;;;;;18.67;7.60;;;;;;;22.61;52.92;100470.59;5443810;32;34180;-68
2023/09/11 05:27:24;;;;;;;19.27;8.73;;;;;;;21.94;54.82;100474.56;5430089;32;33992;-73
2023/09/11 05:30:26;;;;;;;16.67;7.55;;;;;;;23.16;51.56;100471.06;5429483;32;34143;-69
2023/09/11 05:33:29;;;;;;;18.70;7.57;;;;;;;22.94;51.88;100461.44;5435457;32;33648;-69
2023/09/11 05:36:31;;;;;;;;;;;;;;;23.64;49.89;100460.41;5427807;32;33633;-74
2023/09/11 05:39:33;;;;;;;16.37;8.07;;;;;;;24.32;48.07;100457.56;5444800;32;33710;-74
2023/09/11 05:42:35;;;;;;;;;;;;;;;24.66;47.15;100460.53;5431141;32;33652;-72
2023/09/11 05:45:38;;;;;;;13.98;6.97;;;;;;;24.52;46.99;100458.34;5444516;32;32959;-79
2023/09/11 05:48:40;;;;;;;14.98;6.30;;;;;;;25.24;45.44;100460.22;5421877;32;34652;-72
2023/09/11 05:51:43;;;;;;;17.20;8.27;;;;;;;25.87;42.61;100462.00;5442176;32;35053;-73
2023/09/11 05:54:47;;;;;;;20.17;9.15;;;;;;;25.39;43.26;100458.72;5445520;32;33209;-78
2023/09/11 05:57:49;;;;;;;42.15;9.88;;;;;;;25.32;44.00;100460.31;5421854;32;33068;-73
2023/09/11 06:00:53;;;;;;;26.67;7.57;;;;;;;25.50;43.81;100464.84;5445856;32;31351;-74
2023/09/11 06:03:55;;;;;;;13.18;6.70;;;;;;;27.45;39.59;100455.16;5443241;32;33131;-70
2023/09/11 06:06:58;;;;;;;22.87;8.02;;;;;;;26.36;41.44;100465.84;5438248;32;32328;-69
2023/09/11 06:10:11;;;;;;;24.75;7.85;;;;;;;27.32;39.81;100448.56;5447363;32;33935;-71
2023/09/11 06:13:16;;;;;;;23.85;7.87;;;;;;;28.16;37.54;100448.22;5421521;32;33465;-70
2023/09/11 06:16:21;;;;;;;39.42;7.57;;;;;;;27.18;39.78;100447.37;5430670;32;32885;-69
2023/09/11 06:19:23;;;;;;;17.73;7.53;;;;;;;28.20;37.26;100451.38;5446472;32;34497;-72
2023/09/11 06:22:25;;;;;;;15.43;6.35;;;;;;;27.15;38.67;100462.00;5443650;32;33113;-69
2023/09/11 06:25:27;;;;;;;13.30;5.85;;;;;;;28.31;36.91;100451.06;5439249;32;34401;-69
2023/09/11 06:28:30;;;;;;;18.48;6.80;;;;;;;28.10;37.13;100448.06;5443163;32;33301;-69
2023/09/11 06:31:32;;;;;;;15.32;6.45;;;;;;;25.83;41.85;100458.78;5423278;32;34221;-69
2023/09/11 06:34:35;;;;;;;12.25;6.10;;;;;;;26.79;40.28;100453.25;5432258;32;33057;-65
2023/09/11 06:37:37;;;;;;;13.95;7.03;;;;;;;28.41;36.82;100449.03;5426886;32;33087;-67
2023/09/11 06:40:39;;;;;;;15.18;6.45;;;;;;;27.77;38.08;100445.41;5433019;32;34440;-72
2023/09/11 06:43:42;;;;;;;19.23;7.60;;;;;;;26.85;40.15;100474.19;5430492;32;33612;-71
2023/09/11 06:46:45;;;;;;;11.85;6.20;;;;;;;28.53;36.93;100454.88;5436039;32;33869;-67
2023/09/11 06:49:47;;;;;;;13.75;7.07;;;;;;;30.57;33.42;100456.91;5438851;32;33145;-68
2023/09/11 06:52:49;;;;;;;14.40;6.40;;;;;;;30.10;34.40;100460.81;5437360;32;33453;-70
2023/09/11 06:55:51;;;;;;;17.60;7.75;;;;;;;30.55;33.87;100456.25;5419743;32;34417;-68
2023/09/11 06:58:56;;;;;;;16.83;6.80;;;;;;;31.00;32.49;100465.19;5442533;32;33172;-70
2023/09/11 07:01:58;;;;;;;18.90;7.62;;;;;;;30.36;33.97;100459.53;5426396;32;32982;-70
2023/09/11 07:05:00;;;;;;;18.80;7.53;;;;;;;29.95;34.21;100462.66;5425974;32;33181;-71
2023/09/11 07:08:03;;;;;;;14.45;6.40;;;;;;;29.47;35.27;100464.69;5419734;32;33134;-70
2023/09/11 07:11:05;;;;;;;15.23;6.68;;;;;;;28.84;35.74;100458.44;5429634;32;34835;-74
2023/09/11 07:14:12;;;;;;;14.65;7.50;;;;;;;30.36;33.62;100470.38;5432317;32;33664;-74
2023/09/11 07:17:15;;;;;;;12.43;6.80;;;;;;;29.83;34.88;100464.94;5421452;32;34414;-72
2023/09/11 07:20:17;;;;;;;14.82;6.25;;;;;;;32.03;31.00;100463.94;5430748;32;33192;-74
2023/09/11 07:23:22;;;;;;;13.88;6.72;;;;;;;33.09;29.10;100464.53;5436766;32;33933;-72
2023/09/11 07:26:24;;;;;;;10.93;6.43;;;;;;;30.79;32.54;100471.44;5439647;32;34924;-68
2023/09/11 07:29:27;;;;;;;14.75;6.65;;;;;;;31.95;31.43;100473.09;5443588;32;33073;-78
2023/09/11 07:32:30;;;;;;;14.23;6.62;;;;;;;32.18;30.94;100472.81;5405480;32;32737;-76
2023/09/11 07:35:33;;;;;;;13.98;6.50;;;;;;;31.55;31.36;100475.41;5378867;32;33230;-75
2023/09/11 07:38:35;;;;;;;21.23;9.80;;;;;;;32.29;30.63;100468.72;5397639;32;34624;-69
2023/09/11 07:41:37;;;;;;;18.17;6.75;;;;;;;31.98;31.04;100472.69;5399916;32;33069;-78
2023/09/11 07:44:40;;;;;;;21.35;6.72;;;;;;;31.22;31.89;100477.75;5391842;32;35430;-70
2023/09/11 07:47:42;;;;;;;13.77;6.10;;;;;;;32.55;29.69;100477.06;5399691;32;34561;-75
2023/09/11 07:50:44;;;;;;;14.07;7.07;;;;;;;32.12;30.27;100470.06;5395082;32;34334;-81
2023/09/11 07:53:47;;;;;;;11.68;6.35;;;;;;;33.74;28.12;100473.88;5399618;32;33252;-74
2023/09/11 07:56:52;;;;;;;18.00;6.80;;;;;;;32.01;30.47;100466.00;5390147;32;33153;-73
2023/09/11 07:59:54;;;;;;;18.60;6.60;;;;;;;32.13;30.19;100464.41;5388745;32;34172;-73
2023/09/11 08:02:57;;;;;;;15.75;9.50;;;;;;;32.37;30.52;100465.88;5387546;32;35343;-80
2023/09/11 08:06:04;;;;;;;16.83;6.72;;;;;;;33.42;28.74;100456.47;5397490;32;33247;-77
2023/09/11 08:09:07;;;;;;;17.70;6.75;;;;;;;31.65;31.21;100466.09;5372390;32;35243;-84
2023/09/11 08:12:11;;;;;;;17.10;7.20;;;;;;;33.01;29.02;100465.56;5361056;32;33104;-77
2023/09/11 08:15:14;;;;;;;19.92;6.62;;;;;;;33.35;28.66;100458.31;5369394;32;34777;-70
2023/09/11 08:18:21;;;;;;;20.58;7.00;;;;;;;33.00;29.06;100460.34;5393700;32;35089;-76
2023/09/11 08:21:24;;;;;;;19.50;6.62;;;;;;;32.81;29.05;100454.56;5382875;32;202406;-81
2023/09/11 08:24:26;;;;;;;17.00;7.30;;;;;;;33.27;28.63;100456.63;5389107;32;34764;-72
2023/09/11 08:27:29;;;;;;;24.63;7.50;;;;;;;33.88;27.87;100445.59;5382178;32;33244;-71
2023/09/11 08:30:31;;;;;;;17.73;6.15;;;;;;;35.26;25.73;100448.97;5386453;32;34573;-72
2023/09/11 08:33:36;;;;;;;16.30;6.72;;;;;;;36.11;24.09;100439.50;5396931;32;36268;-75
2023/09/11 08:36:57;;;;;;;32.53;8.55;;;;;;;34.03;27.20;100445.41;5404438;32;31755;-82
2023/09/11 08:39:59;;;;;;;20.17;6.60;;;;;;;36.78;23.86;100432.22;5389702;32;35059;-71
2023/09/11 08:43:02;;;;;;;15.55;6.22;;;;;;;35.10;25.46;100435.84;5384228;32;33949;-74
2023/09/11 08:46:09;;;;;;;23.25;7.57;;;;;;;36.99;23.37;100437.22;5385725;32;34737;-72
2023/09/11 08:49:15;;;;;;;16.30;5.82;;;;;;;35.97;24.38;100436.06;5410779;32;35337;-75
2023/09/11 08:52:17;;;;;;;19.05;7.03;;;;;;;35.25;25.20;100432.81;5398590;32;33057;-75
2023/09/11 08:55:21;;;;;;;17.15;6.43;;;;;;;36.62;23.59;100422.72;5402677;32;34848;-76
2023/09/11 08:58:24;;;;;;;12.63;6.12;;;;;;;37.04;23.22;100428.31;5390124;32;31727;-75
2023/09/11 09:01:29;;;;;;;13.88;5.35;;;;;;;38.08;22.01;100417.78;5396994;32;33201;-71
2023/09/11 09:04:34;;;;;;;18.02;5.60;;;;;;;38.15;21.31;100413.00;5391264;32;34648;-73
2023/09/11 09:07:38;;;;;;;14.25;5.55;;;;;;;35.36;24.63;100410.25;5394859;32;35389;-74
2023/09/11 09:10:41;;;;;;;10.15;4.70;;;;;;;39.90;19.28;100414.16;5376151;32;33322;-73
2023/09/11 09:13:44;;;;;;;17.50;5.85;;;;;;;37.90;21.22;100416.84;5388113;32;34131;-73
2023/09/11 09:16:46;;;;;;;15.02;5.40;;;;;;;38.38;20.79;100412.97;5388786;32;33455;-72
2023/09/11 09:19:48;;;;;;;12.18;4.22;;;;;;;38.85;20.27;100412.88;5394543;32;34078;-71
2023/09/11 09:22:58;;;;;;;12.82;4.82;;;;;;;37.98;20.22;100409.31;5390513;32;33451;-69
2023/09/11 09:26:08;;;;;;;10.57;3.95;;;;;;;40.84;17.80;100403.03;5405085;32;32708;-76
2023/09/11 09:29:11;;;;;;;8.80;4.62;;;;;;;40.98;17.28;100413.66;5394384;32;32969;-71
2023/09/11 09:32:13;;;;;;;10.80;4.15;;;;;;;41.18;16.64;100397.31;5404147;32;33222;-74
2023/09/11 09:35:28;;;;;;;8.57;4.47;;;;;;;40.44;17.53;100400.56;5419966;32;33773;-74
2023/09/11 09:38:31;;;;;;;12.20;4.30;;;;;;;40.29;17.76;100397.66;5433075;32;33357;-74
2023/09/11 09:41:33;;;;;;;11.90;4.90;;;;;;;39.80;18.50;100400.22;5427807;32;34847;-87
2023/09/11 09:44:37;;;;;;;14.25;4.68;;;;;;;37.42;21.32;100395.09;5423857;32;32752;-74
2023/09/11 09:47:39;;;;;;;13.75;4.82;;;;;;;39.90;18.86;100394.88;5395878;32;32165;-69
2023/09/11 09:50:50;;;;;;;10.40;4.25;;;;;;;38.34;20.57;100392.59;5397872;32;32534;-74
2023/09/11 09:53:53;;;;;;;9.73;4.62;;;;;;;39.68;18.78;100383.84;5403562;32;35012;-73
2023/09/11 09:56:56;;;;;;;14.73;5.00;;;;;;;41.56;16.99;100374.22;5379990;32;35226;-76
2023/09/11 09:59:59;;;;;;;17.12;5.28;;;;;;;38.04;20.99;100391.88;5407749;32;33954;-72
2023/09/11 10:03:02;;;;;;;11.12;4.90;;;;;;;39.36;19.54;100369.84;5399081;32;32777;-69
2023/09/11 10:06:20;;;;;;;9.93;4.68;;;;;;;39.72;19.04;100373.16;5397661;32;34217;-71
2023/09/11 10:09:23;;;;;;;11.35;4.80;;;;;;;41.55;16.71;100360.69;5405059;32;34493;-72
2023/09/11 10:12:25;;;;;;;11.18;4.78;;;;;;;39.12;18.99;100371.03;5397439;32;33359;-72
2023/09/11 10:15:29;;;;;;;10.02;4.50;;;;;;;39.67;18.22;100354.66;5385245;32;33717;-76
2023/09/11 10:18:33;;;;;;;14.38;4.45;;;;;;;40.07;18.17;100356.34;5392873;32;33353;-82
2023/09/11 10:21:36;;;;;;;11.90;4.97;;;;;;;42.27;15.84;100346.22;5401577;32;33252;-73
2023/09/11 10:24:38;;;;;;;9.25;4.62;;;;;;;40.97;16.50;100348.63;5393410;32;32305;-73
2023/09/11 10:27:41;;;;;;;12.07;4.55;;;;;;;37.79;19.92;100354.53;5402156;32;31659;-74
2023/09/11 10:31:07;;;;;;;10.20;4.30;;;;;;;39.15;18.26;100343.91;5395198;32;33455;-72
2023/09/11 10:34:11;;;;;;;13.75;4.57;;;;;;;38.05;19.30;100339.50;5406955;32;33432;-79
2023/09/11 10:37:20;;;;;;;9.45;4.97;;;;;;;36.38;20.90;100339.63;5379523;32;35165;-70
2023/09/11 10:40:29;;;;;;;11.65;4.60;;;;;;;36.58;20.62;100332.03;5402482;32;32906;-69
2023/09/11 10:43:32;;;;;;;9.80;4.43;;;;;;;35.38;21.95;100328.87;5406852;32;33843;-74
2023/09/11 10:46:39;;;;;;;9.95;4.57;;;;;;;33.80;23.78;100336.75;5379721;32;33085;-76
2023/09/11 10:49:41;;;;;;;10.35;4.37;;;;;;;34.63;22.28;100331.47;5406917;32;33555;-71
2023/09/11 10:52:45;;;;;;;10.70;5.20;;;;;;;34.47;23.59;100332.84;5406849;32;35709;-74
2023/09/11 10:55:50;;;;;;;9.82;4.25;;;;;;;33.92;23.39;100331.53;5393818;32;34275;-74
2023/09/11 10:58:52;;;;;;;9.38;4.72;;;;;;;34.23;22.58;100330.81;5400817;32;34270;-75
2023/09/11 11:01:56;;;;;;;10.68;4.68;;;;;;;33.70;24.09;100336.38;5404710;32;32877;-73
2023/09/11 11:04:59;;;;;;;16.87;5.22;;;;;;;33.50;24.94;100330.97;5403702;32;32973;-75
2023/09/11 11:08:02;;;;;;;10.52;4.95;;;;;;;33.16;25.85;100326.53;5404998;32;33936;-74
2023/09/11 11:11:04;;;;;;;14.70;4.97;;;;;;;34.25;24.63;100328.69;5359016;32;31373;-73
2023/09/11 11:14:17;;;;;;;11.18;4.60;;;;;;;34.87;22.59;100329.88;5390522;32;34542;-70
2023/09/11 11:17:36;;;;;;;12.15;4.82;;;;;;;33.73;24.33;100319.59;5389766;32;32984;-70
2023/09/11 11:21:04;;;;;;;10.77;4.50;;;;;;;33.84;24.70;100318.94;5402562;32;34431;-70
2023/09/11 11:24:10;;;;;;;10.23;4.47;;;;;;;34.42;23.13;100318.16;5406398;32;35005;-74
2023/09/11 11:27:12;;;;;;;13.40;4.72;;;;;;;34.42;23.60;100319.00;5391185;32;33463;-69
2023/09/11 11:30:15;;;;;;;16.02;5.53;;;;;;;33.83;24.42;100320.00;5398000;32;36188;-73
2023/09/11 11:33:20;;;;;;;15.27;5.05;;;;;;;35.64;21.95;100313.31;5405263;32;34273;-66
2023/09/11 11:36:25;;;;;;;9.13;4.65;;;;;;;36.31;21.65;100306.03;5401319;32;33292;-74
2023/09/11 11:39:28;;;;;;;12.35;4.70;;;;;;;36.39;21.00;100305.78;5377328;32;36188;-70
2023/09/11 11:42:33;;;;;;;7.07;3.95;;;;;;;36.76;19.97;100297.44;5390250;32;34032;-72
2023/09/11 11:45:38;;;;;;;8.82;4.37;;;;;;;36.14;20.51;100294.06;5398100;32;34639;-73
2023/09/11 11:48:40;;;;;;;8.18;4.45;;;;;;;34.67;22.42;100290.94;5390085;32;34223;-71
2023/09/11 11:51:44;;;;;;;9.50;5.05;;;;;;;34.13;23.28;100289.50;5391801;32;34363;-73
2023/09/11 11:54:46;;;;;;;10.88;4.87;;;;;;;33.78;24.08;100292.53;5366572;32;32700;-76
2023/09/11 11:57:50;;;;;;;10.85;5.20;;;;;;;33.78;24.44;100283.53;5403903;32;33089;-76
2023/09/11 12:00:59;;;;;;;13.80;5.28;;;;;;;34.38;23.75;100274.06;5393967;32;33335;-85
2023/09/11 12:04:04;;;;;;;11.50;5.05;;;;;;;34.63;23.07;100265.97;5395477;32;36782;-86
2023/09/11 12:07:08;;;;;;;11.38;5.12;;;;;;;37.34;20.29;100266.59;5379668;32;33463;-70
2023/09/11 12:10:12;;;;;;;10.30;4.78;;;;;;;37.96;19.61;100255.94;5385048;32;35412;-69
2023/09/11 12:13:16;;;;;;;10.65;4.57;;;;;;;37.45;20.15;100264.94;5401128;32;34527;-69
2023/09/11 12:16:18;;;;;;;12.15;5.25;;;;;;;39.13;17.40;100246.28;5388267;32;34372;-77
2023/09/11 12:19:22;;;;;;;9.38;5.03;;;;;;;36.24;20.64;100258.78;5397346;32;33722;-89
2023/09/11 12:22:25;;;;;;;11.88;4.43;;;;;;;38.63;18.39;100247.06;5393823;32;33180;-76
2023/09/11 12:25:27;;;;;;;10.63;4.72;;;;;;;39.24;17.70;100240.72;5399128;32;34506;-91
2023/09/11 12:28:30;;;;;;;16.45;6.28;;;;;;;39.84;17.01;100241.84;5397332;32;33887;-71
2023/09/11 12:31:33;;;;;;;10.52;4.20;;;;;;;42.26;14.61;100244.34;5397029;32;33901;-75
2023/09/11 12:34:44;;;;;;;10.60;4.10;;;;;;;40.24;16.36;100241.50;5405068;32;34307;-76
2023/09/11 12:37:47;;;;;;;13.40;5.05;;;;;;;39.70;16.93;100233.13;5384866;32;34500;-70
2023/09/11 12:40:51;;;;;;;14.23;5.43;;;;;;;38.08;18.34;100234.78;5397290;32;33090;-75
2023/09/11 12:43:55;;;;;;;14.27;4.70;;;;;;;35.64;21.17;100237.63;5381315;32;34069;-71
2023/09/11 12:47:00;;;;;;;10.45;4.60;;;;;;;35.94;20.88;100237.72;5381082;32;34141;-72
2023/09/11 12:50:03;;;;;;;8.93;4.35;;;;;;;36.83;20.12;100221.47;5406787;32;33343;-74
2023/09/11 12:53:06;;;;;;;14.05;4.80;;;;;;;36.84;19.83;100229.50;5391053;32;34807;-69
2023/09/11 12:56:09;;;;;;;12.90;4.90;;;;;;;36.76;20.19;100218.03;5405917;32;34817;-71
2023/09/11 12:59:11;;;;;;;10.80;4.82;;;;;;;37.03;19.99;100227.47;5408686;32;35822;-76
2023/09/11 13:02:13;;;;;;;10.52;4.75;;;;;;;36.88;20.28;100219.75;5419312;32;34402;-73
2023/09/11 13:05:16;;;;;;;11.60;4.60;;;;;;;37.91;19.21;100229.22;5448384;32;33024;-71
2023/09/11 13:08:18;;;;;;;10.90;4.78;;;;;;;39.51;17.35;100215.25;5420895;32;33245;-72
2023/09/11 13:11:20;;;;;;;11.68;4.82;;;;;;;38.25;18.46;100210.13;5430156;32;33244;-76
2023/09/11 13:14:22;;;;;;;9.25;4.80;;;;;;;37.91;18.78;100206.47;5449449;32;35236;-78
2023/09/11 13:17:25;;;;;;;9.98;4.65;;;;;;;39.30;17.24;100194.91;5432048;32;34260;-71
2023/09/11 13:20:27;;;;;;;15.00;5.80;;;;;;;37.53;18.93;100204.25;5439485;32;33203;-76
2023/09/11 13:23:29;;;;;;;13.38;4.60;;;;;;;35.57;21.52;100203.22;5433540;32;33420;-75
2023/09/11 13:26:31;;;;;;;11.70;4.53;;;;;;;36.08;20.35;100203.66;5445438;32;34936;-78
2023/09/11 13:29:33;;;;;;;15.85;4.90;;;;;;;35.98;20.80;100195.16;5435408;32;34562;-67
2023/09/11 13:32:40;;;;;;;11.88;5.28;;;;;;;35.33;21.13;100194.00;5394399;32;34547;-70
2023/09/11 13:35:45;;;;;;;11.63;4.60;;;;;;;34.81;22.09;100187.97;5398611;32;34510;-68
2023/09/11 13:38:48;;;;;;;10.77;4.70;;;;;;;33.82;23.06;100181.22;5399610;32;34416;-70
2023/09/11 13:41:50;;;;;;;11.57;5.18;;;;;;;34.07;23.10;100178.56;5401070;32;34325;-69
2023/09/11 13:44:53;;;;;;;14.00;4.68;;;;;;;34.27;22.80;100183.94;5405442;32;33458;-74
2023/09/11 13:47:58;;;;;;;13.68;5.10;;;;;;;33.03;24.28;100183.06;5408355;32;35187;-72
2023/09/11 13:51:01;;;;;;;16.65;6.10;;;;;;;34.14;23.23;100173.94;5393852;32;31231;-74
2023/09/11 13:54:03;;;;;;;13.27;4.80;;;;;;;33.27;24.34;100176.13;5404995;32;33455;-71
2023/09/11 13:57:08;;;;;;;12.30;5.40;;;;;;;33.59;23.96;100171.66;5410183;32;33581;-73
2023/09/11 14:00:10;;;;;;;11.12;5.30;;;;;;;33.32;24.23;100170.03;5406032;32;33810;-76
2023/09/11 14:03:15;;;;;;;12.73;5.10;;;;;;;33.68;23.67;100164.06;5401501;32;35101;-67
2023/09/11 14:06:23;;;;;;;12.43;4.65;;;;;;;33.37;23.97;100162.91;5397790;32;34778;-69
2023/09/11 14:09:26;;;;;;;9.82;4.62;;;;;;;33.07;24.49;100165.25;5390065;32;35094;-81